sensor_id;sensor_type;location;lat;lon;timestamp;temperature;humidity
27026;DHT22;14565;48.626;8.978;2023-09-19T00:01:16;15.40;99.90
27026;DHT22;14565;48.626;8.978;2023-09-19T00:03:45;15.30;99.90
27026;DHT22;14565;48.626;8.978;2023-09-19T00:06:10;15.40;99.90
27026;DHT22;14565;48.626;8.978;2023-09-19T00:08:41;15.30;99.90
27026;DHT22;14565;48.626;8.978;2023-09-19T00:11:10;15.40;99.90
27026;DHT22;14565;48.626;8.978;2023-09-19T00:13:36;15.40;99.90
27026;DHT22;14565;48.626;8.978;2023-09-19T00:16:08;15.30;99.90
27026;DHT22;14565;48.626;8.978;2023-09-19T00:18:36;15.30;99.90
27026;DHT22;14565;48.626;8.978;2023-09-19T00:21:02;15.40;99.90
27026;DHT22;14565;48.626;8.978;2023-09-19T00:23:29;15.30;99.90
27026;DHT22;14565;48.626;8.978;2023-09-19T00:25:59;15.30;99.90
27026;DHT22;14565;48.626;8.978;2023-09-19T00:28:25;15.40;99.90
27026;DHT22;14565;48.626;8.978;2023-09-19T00:30:51;15.40;99.90
27026;DHT22;14565;48.626;8.978;2023-09-19T00:33:20;15.30;99.90
27026;DHT22;14565;48.626;8.978;2023-09-19T00:35:53;15.30;99.90
27026;DHT22;14565;48.626;8.978;2023-09-19T00:38:19;15.30;99.90
27026;DHT22;14565;48.626;8.978;2023-09-19T00:40:52;15.30;99.90
27026;DHT22;14565;48.626;8.978;2023-09-19T00:43:19;15.40;99.90
27026;DHT22;14565;48.626;8.978;2023-09-19T00:45:50;15.30;99.90
27026;DHT22;14565;48.626;8.978;2023-09-19T00:48:16;15.30;99.90
27026;DHT22;14565;48.626;8.978;2023-09-19T00:50:43;15.30;99.90
27026;DHT22;14565;48.626;8.978;2023-09-19T00:53:09;15.20;99.90
27026;DHT22;14565;48.626;8.978;2023-09-19T00:55:39;15.30;99.90
27026;DHT22;14565;48.626;8.978;2023-09-19T00:58:05;15.30;99.90
27026;DHT22;14565;48.626;8.978;2023-09-19T01:00:33;15.30;99.90
27026;DHT22;14565;48.626;8.978;2023-09-19T01:03:02;15.30;99.90
27026;DHT22;14565;48.626;8.978;2023-09-19T01:05:28;15.30;99.90
27026;DHT22;14565;48.626;8.978;2023-09-19T01:07:55;15.30;99.90
27026;DHT22;14565;48.626;8.978;2023-09-19T01:10:21;15.30;99.90
27026;DHT22;14565;48.626;8.978;2023-09-19T01:13:10;15.30;99.90
27026;DHT22;14565;48.626;8.978;2023-09-19T01:31:13;15.10;99.90
27026;DHT22;14565;48.626;8.978;2023-09-19T01:34:02;15.20;99.90
27026;DHT22;14565;48.626;8.978;2023-09-19T01:36:34;15.30;99.90
27026;DHT22;14565;48.626;8.978;2023-09-19T01:39:09;15.30;99.90
27026;DHT22;14565;48.626;8.978;2023-09-19T01:47:33;15.30;99.90
27026;DHT22;14565;48.626;8.978;2023-09-19T01:52:43;15.30;99.90
27026;DHT22;14565;48.626;8.978;2023-09-19T01:55:12;15.30;99.90
27026;DHT22;14565;48.626;8.978;2023-09-19T01:58:05;15.30;99.90
27026;DHT22;14565;48.626;8.978;2023-09-19T02:00:35;15.20;99.90
27026;DHT22;14565;48.626;8.978;2023-09-19T02:03:02;15.10;99.90
27026;DHT22;14565;48.626;8.978;2023-09-19T02:05:29;15.10;99.90
27026;DHT22;14565;48.626;8.978;2023-09-19T02:07:55;15.00;99.90
27026;DHT22;14565;48.626;8.978;2023-09-19T02:10:22;15.00;99.90
27026;DHT22;14565;48.626;8.978;2023-09-19T02:12:49;15.00;99.90
27026;DHT22;14565;48.626;8.978;2023-09-19T02:15:15;15.00;99.90
27026;DHT22;14565;48.626;8.978;2023-09-19T02:17:42;15.00;99.90
27026;DHT22;14565;48.626;8.978;2023-09-19T02:20:10;15.00;99.90
27026;DHT22;14565;48.626;8.978;2023-09-19T02:22:40;14.90;99.90
27026;DHT22;14565;48.626;8.978;2023-09-19T02:25:06;15.00;99.90
27026;DHT22;14565;48.626;8.978;2023-09-19T02:27:33;14.90;99.90
27026;DHT22;14565;48.626;8.978;2023-09-19T02:29:58;14.90;99.90
27026;DHT22;14565;48.626;8.978;2023-09-19T02:32:24;14.90;99.90
27026;DHT22;14565;48.626;8.978;2023-09-19T02:34:50;14.90;99.90
27026;DHT22;14565;48.626;8.978;2023-09-19T02:37:17;14.90;99.90
27026;DHT22;14565;48.626;8.978;2023-09-19T02:39:44;14.90;99.90
27026;DHT22;14565;48.626;8.978;2023-09-19T02:42:10;14.80;99.90
27026;DHT22;14565;48.626;8.978;2023-09-19T02:44:35;14.80;99.90
27026;DHT22;14565;48.626;8.978;2023-09-19T02:47:01;14.80;99.90
27026;DHT22;14565;48.626;8.978;2023-09-19T02:49:27;14.80;99.90
27026;DHT22;14565;48.626;8.978;2023-09-19T02:51:52;14.90;99.90
27026;DHT22;14565;48.626;8.978;2023-09-19T02:54:18;14.90;99.90
27026;DHT22;14565;48.626;8.978;2023-09-19T02:56:44;15.00;99.90
27026;DHT22;14565;48.626;8.978;2023-09-19T02:59:10;15.00;99.90
27026;DHT22;14565;48.626;8.978;2023-09-19T03:01:36;14.90;99.90
27026;DHT22;14565;48.626;8.978;2023-09-19T03:04:05;14.90;99.90
27026;DHT22;14565;48.626;8.978;2023-09-19T03:06:34;15.00;99.90
27026;DHT22;14565;48.626;8.978;2023-09-19T03:08:59;15.00;99.90
27026;DHT22;14565;48.626;8.978;2023-09-19T03:11:25;15.10;99.90
27026;DHT22;14565;48.626;8.978;2023-09-19T03:13:54;15.10;99.90
27026;DHT22;14565;48.626;8.978;2023-09-19T03:16:20;15.10;99.90
27026;DHT22;14565;48.626;8.978;2023-09-19T03:18:47;15.10;99.90
27026;DHT22;14565;48.626;8.978;2023-09-19T03:21:15;15.20;99.90
27026;DHT22;14565;48.626;8.978;2023-09-19T03:23:41;15.20;99.90
27026;DHT22;14565;48.626;8.978;2023-09-19T03:26:08;15.10;99.90
27026;DHT22;14565;48.626;8.978;2023-09-19T03:28:34;15.20;99.90
27026;DHT22;14565;48.626;8.978;2023-09-19T03:31:05;15.20;99.90
27026;DHT22;14565;48.626;8.978;2023-09-19T03:33:31;15.20;99.90
27026;DHT22;14565;48.626;8.978;2023-09-19T03:35:58;15.10;99.90
27026;DHT22;14565;48.626;8.978;2023-09-19T03:38:25;15.20;99.90
27026;DHT22;14565;48.626;8.978;2023-09-19T03:40:51;15.20;99.90
27026;DHT22;14565;48.626;8.978;2023-09-19T03:43:17;15.20;99.90
27026;DHT22;14565;48.626;8.978;2023-09-19T03:45:43;15.20;99.90
27026;DHT22;14565;48.626;8.978;2023-09-19T03:48:11;15.20;99.90
27026;DHT22;14565;48.626;8.978;2023-09-19T03:50:37;15.20;99.90
27026;DHT22;14565;48.626;8.978;2023-09-19T03:53:03;15.20;99.90
27026;DHT22;14565;48.626;8.978;2023-09-19T03:55:29;15.10;99.90
27026;DHT22;14565;48.626;8.978;2023-09-19T03:57:57;15.20;99.90
27026;DHT22;14565;48.626;8.978;2023-09-19T04:00:23;15.10;99.90
27026;DHT22;14565;48.626;8.978;2023-09-19T04:02:52;15.10;99.90
27026;DHT22;14565;48.626;8.978;2023-09-19T04:05:18;15.10;99.90
27026;DHT22;14565;48.626;8.978;2023-09-19T04:07:43;15.10;99.90
27026;DHT22;14565;48.626;8.978;2023-09-19T04:10:09;15.10;99.90
27026;DHT22;14565;48.626;8.978;2023-09-19T04:12:37;15.30;99.90
27026;DHT22;14565;48.626;8.978;2023-09-19T04:15:06;15.40;99.90
27026;DHT22;14565;48.626;8.978;2023-09-19T04:17:32;15.40;99.90
27026;DHT22;14565;48.626;8.978;2023-09-19T04:20:00;15.30;99.90
27026;DHT22;14565;48.626;8.978;2023-09-19T04:22:26;15.30;99.90
27026;DHT22;14565;48.626;8.978;2023-09-19T04:24:52;15.30;99.90
27026;DHT22;14565;48.626;8.978;2023-09-19T04:27:17;15.30;99.90
27026;DHT22;14565;48.626;8.978;2023-09-19T04:29:44;15.20;99.90
27026;DHT22;14565;48.626;8.978;2023-09-19T04:32:10;15.30;99.90
27026;DHT22;14565;48.626;8.978;2023-09-19T04:34:36;15.30;99.90
27026;DHT22;14565;48.626;8.978;2023-09-19T04:37:04;15.20;99.90
27026;DHT22;14565;48.626;8.978;2023-09-19T04:39:29;15.20;99.90
27026;DHT22;14565;48.626;8.978;2023-09-19T04:41:55;15.30;99.90
27026;DHT22;14565;48.626;8.978;2023-09-19T04:44:22;15.30;99.90
27026;DHT22;14565;48.626;8.978;2023-09-19T04:46:47;15.20;99.90
27026;DHT22;14565;48.626;8.978;2023-09-19T04:49:13;15.30;99.90
27026;DHT22;14565;48.626;8.978;2023-09-19T04:51:39;15.20;99.90
27026;DHT22;14565;48.626;8.978;2023-09-19T04:54:06;15.30;99.90
27026;DHT22;14565;48.626;8.978;2023-09-19T04:56:32;15.20;99.90
27026;DHT22;14565;48.626;8.978;2023-09-19T04:58:58;15.30;99.90
27026;DHT22;14565;48.626;8.978;2023-09-19T05:01:26;15.30;99.90
27026;DHT22;14565;48.626;8.978;2023-09-19T05:03:52;15.30;99.90
27026;DHT22;14565;48.626;8.978;2023-09-19T05:06:21;15.20;99.90
27026;DHT22;14565;48.626;8.978;2023-09-19T05:08:48;15.30;99.90
27026;DHT22;14565;48.626;8.978;2023-09-19T05:11:21;15.40;99.90
27026;DHT22;14565;48.626;8.978;2023-09-19T05:13:47;15.40;99.90
27026;DHT22;14565;48.626;8.978;2023-09-19T05:16:13;15.50;99.90
27026;DHT22;14565;48.626;8.978;2023-09-19T05:18:39;15.40;99.90
27026;DHT22;14565;48.626;8.978;2023-09-19T05:21:05;15.20;99.90
27026;DHT22;14565;48.626;8.978;2023-09-19T05:23:30;15.30;99.90
27026;DHT22;14565;48.626;8.978;2023-09-19T05:25:57;15.20;99.90
27026;DHT22;14565;48.626;8.978;2023-09-19T05:28:23;15.30;99.90
27026;DHT22;14565;48.626;8.978;2023-09-19T05:30:49;15.30;99.90
27026;DHT22;14565;48.626;8.978;2023-09-19T05:33:18;15.30;99.90
27026;DHT22;14565;48.626;8.978;2023-09-19T05:35:44;15.30;99.90
27026;DHT22;14565;48.626;8.978;2023-09-19T05:38:15;15.40;99.90
27026;DHT22;14565;48.626;8.978;2023-09-19T05:40:41;15.40;99.90
27026;DHT22;14565;48.626;8.978;2023-09-19T05:43:09;15.40;99.90
27026;DHT22;14565;48.626;8.978;2023-09-19T05:45:35;15.50;99.90
27026;DHT22;14565;48.626;8.978;2023-09-19T05:48:12;15.30;99.90
27026;DHT22;14565;48.626;8.978;2023-09-19T05:50:42;15.30;99.90
27026;DHT22;14565;48.626;8.978;2023-09-19T05:53:08;15.30;99.90
27026;DHT22;14565;48.626;8.978;2023-09-19T05:55:40;15.40;99.90
27026;DHT22;14565;48.626;8.978;2023-09-19T05:58:06;15.50;99.90
27026;DHT22;14565;48.626;8.978;2023-09-19T06:00:31;15.50;99.90
27026;DHT22;14565;48.626;8.978;2023-09-19T06:02:58;15.40;99.90
27026;DHT22;14565;48.626;8.978;2023-09-19T06:05:25;15.50;99.90
27026;DHT22;14565;48.626;8.978;2023-09-19T06:07:57;15.50;99.90
27026;DHT22;14565;48.626;8.978;2023-09-19T06:10:26;15.40;99.90
27026;DHT22;14565;48.626;8.978;2023-09-19T06:12:53;15.60;99.90
27026;DHT22;14565;48.626;8.978;2023-09-19T06:15:20;15.60;99.90
27026;DHT22;14565;48.626;8.978;2023-09-19T06:17:54;15.50;99.90
27026;DHT22;14565;48.626;8.978;2023-09-19T06:20:25;15.60;99.90
27026;DHT22;14565;48.626;8.978;2023-09-19T06:22:54;15.60;99.90
27026;DHT22;14565;48.626;8.978;2023-09-19T06:25:20;15.70;99.90
27026;DHT22;14565;48.626;8.978;2023-09-19T06:27:46;15.80;99.90
27026;DHT22;14565;48.626;8.978;2023-09-19T06:30:12;15.90;99.90
27026;DHT22;14565;48.626;8.978;2023-09-19T06:32:39;15.90;99.90
27026;DHT22;14565;48.626;8.978;2023-09-19T06:35:05;16.00;99.90
27026;DHT22;14565;48.626;8.978;2023-09-19T06:37:36;16.00;99.90
27026;DHT22;14565;48.626;8.978;2023-09-19T06:40:06;16.10;99.90
27026;DHT22;14565;48.626;8.978;2023-09-19T06:42:32;16.20;99.90
27026;DHT22;14565;48.626;8.978;2023-09-19T06:44:58;16.30;99.90
27026;DHT22;14565;48.626;8.978;2023-09-19T06:47:23;16.20;99.90
27026;DHT22;14565;48.626;8.978;2023-09-19T06:49:51;16.20;99.90
27026;DHT22;14565;48.626;8.978;2023-09-19T06:52:17;16.30;99.90
27026;DHT22;14565;48.626;8.978;2023-09-19T06:54:47;16.20;99.90
27026;DHT22;14565;48.626;8.978;2023-09-19T06:57:16;16.30;99.90
27026;DHT22;14565;48.626;8.978;2023-09-19T06:59:41;16.30;99.90
27026;DHT22;14565;48.626;8.978;2023-09-19T07:02:07;16.30;99.90
27026;DHT22;14565;48.626;8.978;2023-09-19T07:04:33;16.20;99.90
27026;DHT22;14565;48.626;8.978;2023-09-19T07:06:59;16.40;99.90
27026;DHT22;14565;48.626;8.978;2023-09-19T07:09:25;16.60;99.90
27026;DHT22;14565;48.626;8.978;2023-09-19T07:11:53;16.40;99.90
27026;DHT22;14565;48.626;8.978;2023-09-19T07:14:18;16.40;99.90
27026;DHT22;14565;48.626;8.978;2023-09-19T07:16:44;16.60;99.90
27026;DHT22;14565;48.626;8.978;2023-09-19T07:19:10;16.60;99.90
27026;DHT22;14565;48.626;8.978;2023-09-19T07:21:36;16.50;99.90
27026;DHT22;14565;48.626;8.978;2023-09-19T07:24:04;16.50;99.90
27026;DHT22;14565;48.626;8.978;2023-09-19T07:26:30;16.60;99.90
27026;DHT22;14565;48.626;8.978;2023-09-19T07:28:56;16.80;99.90
27026;DHT22;14565;48.626;8.978;2023-09-19T07:31:23;17.00;99.90
27026;DHT22;14565;48.626;8.978;2023-09-19T07:33:49;17.10;99.90
27026;DHT22;14565;48.626;8.978;2023-09-19T07:36:14;17.20;99.90
27026;DHT22;14565;48.626;8.978;2023-09-19T07:38:41;17.30;99.90
27026;DHT22;14565;48.626;8.978;2023-09-19T07:41:08;17.20;99.90
27026;DHT22;14565;48.626;8.978;2023-09-19T07:43:35;17.30;99.90
27026;DHT22;14565;48.626;8.978;2023-09-19T07:46:08;17.20;99.90
27026;DHT22;14565;48.626;8.978;2023-09-19T07:48:36;17.50;99.90
27026;DHT22;14565;48.626;8.978;2023-09-19T07:51:04;17.40;99.90
27026;DHT22;14565;48.626;8.978;2023-09-19T07:53:30;17.50;99.90
27026;DHT22;14565;48.626;8.978;2023-09-19T07:56:06;17.80;99.90
27026;DHT22;14565;48.626;8.978;2023-09-19T07:58:32;18.20;99.90
27026;DHT22;14565;48.626;8.978;2023-09-19T08:01:05;18.30;99.90
27026;DHT22;14565;48.626;8.978;2023-09-19T08:03:32;18.10;99.90
27026;DHT22;14565;48.626;8.978;2023-09-19T08:05:58;18.30;99.90
27026;DHT22;14565;48.626;8.978;2023-09-19T08:08:23;18.60;99.90
27026;DHT22;14565;48.626;8.978;2023-09-19T08:10:53;18.50;99.90
27026;DHT22;14565;48.626;8.978;2023-09-19T08:13:19;18.60;99.90
27026;DHT22;14565;48.626;8.978;2023-09-19T08:15:45;18.40;99.90
27026;DHT22;14565;48.626;8.978;2023-09-19T08:18:11;18.20;99.90
27026;DHT22;14565;48.626;8.978;2023-09-19T08:20:37;18.70;99.90
27026;DHT22;14565;48.626;8.978;2023-09-19T08:23:03;18.90;99.90
27026;DHT22;14565;48.626;8.978;2023-09-19T08:25:29;19.20;99.90
27026;DHT22;14565;48.626;8.978;2023-09-19T08:27:58;19.30;99.90
27026;DHT22;14565;48.626;8.978;2023-09-19T08:30:26;19.00;99.90
27026;DHT22;14565;48.626;8.978;2023-09-19T08:33:02;18.70;99.90
27026;DHT22;14565;48.626;8.978;2023-09-19T08:35:30;18.80;99.90
27026;DHT22;14565;48.626;8.978;2023-09-19T08:37:56;18.50;99.90
27026;DHT22;14565;48.626;8.978;2023-09-19T08:40:22;18.50;99.90
27026;DHT22;14565;48.626;8.978;2023-09-19T08:42:53;18.60;99.90
27026;DHT22;14565;48.626;8.978;2023-09-19T08:45:20;18.90;99.90
27026;DHT22;14565;48.626;8.978;2023-09-19T08:56:06;19.00;99.90
27026;DHT22;14565;48.626;8.978;2023-09-19T08:58:40;18.80;99.90
27026;DHT22;14565;48.626;8.978;2023-09-19T09:01:09;18.90;99.90
27026;DHT22;14565;48.626;8.978;2023-09-19T09:03:37;19.00;99.90
27026;DHT22;14565;48.626;8.978;2023-09-19T09:06:02;18.90;99.90
27026;DHT22;14565;48.626;8.978;2023-09-19T09:08:31;18.80;99.90
27026;DHT22;14565;48.626;8.978;2023-09-19T09:10:57;18.90;99.90
27026;DHT22;14565;48.626;8.978;2023-09-19T09:13:24;19.00;99.90
27026;DHT22;14565;48.626;8.978;2023-09-19T09:15:51;19.30;99.90
27026;DHT22;14565;48.626;8.978;2023-09-19T09:18:19;19.60;99.90
27026;DHT22;14565;48.626;8.978;2023-09-19T09:20:45;19.60;99.90
27026;DHT22;14565;48.626;8.978;2023-09-19T09:23:12;19.40;99.90
27026;DHT22;14565;48.626;8.978;2023-09-19T09:25:55;19.30;99.90
27026;DHT22;14565;48.626;8.978;2023-09-19T09:28:33;19.50;99.90
27026;DHT22;14565;48.626;8.978;2023-09-19T09:31:01;19.70;99.90
27026;DHT22;14565;48.626;8.978;2023-09-19T09:33:34;19.90;99.90
27026;DHT22;14565;48.626;8.978;2023-09-19T09:36:02;20.00;99.90
27026;DHT22;14565;48.626;8.978;2023-09-19T09:41:11;19.90;99.90
27026;DHT22;14565;48.626;8.978;2023-09-19T09:43:41;19.90;99.90
27026;DHT22;14565;48.626;8.978;2023-09-19T09:46:17;19.90;99.90
27026;DHT22;14565;48.626;8.978;2023-09-19T09:48:59;20.10;99.90
27026;DHT22;14565;48.626;8.978;2023-09-19T09:52:06;20.10;99.90
27026;DHT22;14565;48.626;8.978;2023-09-19T09:54:33;20.30;99.90
27026;DHT22;14565;48.626;8.978;2023-09-19T09:57:07;20.20;99.90
27026;DHT22;14565;48.626;8.978;2023-09-19T09:59:48;20.20;99.90
27026;DHT22;14565;48.626;8.978;2023-09-19T10:02:16;20.30;99.90
27026;DHT22;14565;48.626;8.978;2023-09-19T10:04:53;20.20;99.90
27026;DHT22;14565;48.626;8.978;2023-09-19T10:07:33;20.20;99.90
27026;DHT22;14565;48.626;8.978;2023-09-19T10:10:03;20.50;99.90
27026;DHT22;14565;48.626;8.978;2023-09-19T10:12:44;20.40;99.90
27026;DHT22;14565;48.626;8.978;2023-09-19T10:15:11;20.80;99.90
27026;DHT22;14565;48.626;8.978;2023-09-19T10:17:43;20.90;99.90
27026;DHT22;14565;48.626;8.978;2023-09-19T10:20:17;20.90;99.90
27026;DHT22;14565;48.626;8.978;2023-09-19T10:23:10;21.00;99.90
27026;DHT22;14565;48.626;8.978;2023-09-19T10:25:39;21.40;99.90
27026;DHT22;14565;48.626;8.978;2023-09-19T10:28:07;21.20;99.90
27026;DHT22;14565;48.626;8.978;2023-09-19T10:30:46;21.50;99.90
27026;DHT22;14565;48.626;8.978;2023-09-19T10:33:17;21.10;99.90
27026;DHT22;14565;48.626;8.978;2023-09-19T10:35:47;21.20;99.90
27026;DHT22;14565;48.626;8.978;2023-09-19T10:38:15;21.10;99.90
27026;DHT22;14565;48.626;8.978;2023-09-19T10:40:44;21.00;99.90
27026;DHT22;14565;48.626;8.978;2023-09-19T10:43:16;21.20;99.90
27026;DHT22;14565;48.626;8.978;2023-09-19T10:45:45;20.50;99.90
27026;DHT22;14565;48.626;8.978;2023-09-19T10:48:12;20.60;99.90
27026;DHT22;14565;48.626;8.978;2023-09-19T10:51:04;20.60;99.90
27026;DHT22;14565;48.626;8.978;2023-09-19T10:56:09;21.10;99.90
27026;DHT22;14565;48.626;8.978;2023-09-19T10:58:43;21.10;99.90
27026;DHT22;14565;48.626;8.978;2023-09-19T11:01:11;20.90;99.90
27026;DHT22;14565;48.626;8.978;2023-09-19T11:03:40;21.10;99.90
27026;DHT22;14565;48.626;8.978;2023-09-19T11:06:11;21.10;99.90
27026;DHT22;14565;48.626;8.978;2023-09-19T11:08:58;21.10;99.90
27026;DHT22;14565;48.626;8.978;2023-09-19T11:11:51;20.80;99.90
27026;DHT22;14565;48.626;8.978;2023-09-19T11:36:15;19.70;99.90
27026;DHT22;14565;48.626;8.978;2023-09-19T11:46:34;19.90;99.90
27026;DHT22;14565;48.626;8.978;2023-09-19T11:49:07;20.00;99.90
27026;DHT22;14565;48.626;8.978;2023-09-19T11:51:43;20.00;99.90
27026;DHT22;14565;48.626;8.978;2023-09-19T11:54:14;20.10;99.90
27026;DHT22;14565;48.626;8.978;2023-09-19T11:56:44;20.20;99.90
27026;DHT22;14565;48.626;8.978;2023-09-19T11:59:11;20.30;99.90
27026;DHT22;14565;48.626;8.978;2023-09-19T12:01:41;20.50;99.90
27026;DHT22;14565;48.626;8.978;2023-09-19T12:04:11;20.50;99.90
27026;DHT22;14565;48.626;8.978;2023-09-19T12:06:37;20.50;99.90
27026;DHT22;14565;48.626;8.978;2023-09-19T12:09:12;20.60;99.90
27026;DHT22;14565;48.626;8.978;2023-09-19T12:11:42;20.60;99.90
27026;DHT22;14565;48.626;8.978;2023-09-19T12:14:11;20.50;99.90
27026;DHT22;14565;48.626;8.978;2023-09-19T12:16:37;20.50;99.90
27026;DHT22;14565;48.626;8.978;2023-09-19T12:19:20;20.50;99.90
27026;DHT22;14565;48.626;8.978;2023-09-19T12:22:01;20.30;99.90
27026;DHT22;14565;48.626;8.978;2023-09-19T12:24:31;20.20;99.90
27026;DHT22;14565;48.626;8.978;2023-09-19T12:27:02;20.30;99.90
27026;DHT22;14565;48.626;8.978;2023-09-19T12:29:31;20.40;99.90
27026;DHT22;14565;48.626;8.978;2023-09-19T12:31:58;20.40;99.90
27026;DHT22;14565;48.626;8.978;2023-09-19T12:34:32;20.40;99.90
27026;DHT22;14565;48.626;8.978;2023-09-19T12:40:04;20.60;99.90
27026;DHT22;14565;48.626;8.978;2023-09-19T12:42:45;20.30;99.90
27026;DHT22;14565;48.626;8.978;2023-09-19T12:45:12;20.20;99.90
27026;DHT22;14565;48.626;8.978;2023-09-19T12:47:40;20.10;99.90
27026;DHT22;14565;48.626;8.978;2023-09-19T12:50:26;20.10;99.90
27026;DHT22;14565;48.626;8.978;2023-09-19T12:52:55;20.10;99.90
27026;DHT22;14565;48.626;8.978;2023-09-19T12:55:29;20.20;99.90
27026;DHT22;14565;48.626;8.978;2023-09-19T13:02:03;20.40;99.90
27026;DHT22;14565;48.626;8.978;2023-09-19T13:04:54;20.60;99.90
27026;DHT22;14565;48.626;8.978;2023-09-19T13:07:44;20.50;99.90
27026;DHT22;14565;48.626;8.978;2023-09-19T13:10:10;20.70;99.90
27026;DHT22;14565;48.626;8.978;2023-09-19T13:12:37;20.60;99.90
27026;DHT22;14565;48.626;8.978;2023-09-19T13:15:11;20.40;99.90
27026;DHT22;14565;48.626;8.978;2023-09-19T13:17:43;20.40;99.90
27026;DHT22;14565;48.626;8.978;2023-09-19T13:20:30;20.20;99.90
27026;DHT22;14565;48.626;8.978;2023-09-19T13:22:59;20.10;99.90
27026;DHT22;14565;48.626;8.978;2023-09-19T13:25:35;20.30;99.90
27026;DHT22;14565;48.626;8.978;2023-09-19T13:28:01;20.40;99.90
27026;DHT22;14565;48.626;8.978;2023-09-19T13:30:30;20.20;99.90
27026;DHT22;14565;48.626;8.978;2023-09-19T13:33:10;20.50;99.90
27026;DHT22;14565;48.626;8.978;2023-09-19T13:35:36;20.60;99.90
27026;DHT22;14565;48.626;8.978;2023-09-19T13:38:08;20.60;99.90
27026;DHT22;14565;48.626;8.978;2023-09-19T13:40:36;20.50;99.90
27026;DHT22;14565;48.626;8.978;2023-09-19T13:43:07;20.70;99.90
27026;DHT22;14565;48.626;8.978;2023-09-19T13:45:33;20.70;99.90
27026;DHT22;14565;48.626;8.978;2023-09-19T13:47:59;20.80;99.90
27026;DHT22;14565;48.626;8.978;2023-09-19T13:50:25;20.80;99.90
27026;DHT22;14565;48.626;8.978;2023-09-19T13:52:54;20.90;99.90
27026;DHT22;14565;48.626;8.978;2023-09-19T13:55:20;21.00;99.90
27026;DHT22;14565;48.626;8.978;2023-09-19T13:57:48;21.00;99.90
27026;DHT22;14565;48.626;8.978;2023-09-19T14:00:16;21.10;99.90
27026;DHT22;14565;48.626;8.978;2023-09-19T14:02:42;20.90;99.90
27026;DHT22;14565;48.626;8.978;2023-09-19T14:05:10;21.00;99.90
27026;DHT22;14565;48.626;8.978;2023-09-19T14:07:43;21.00;99.90
27026;DHT22;14565;48.626;8.978;2023-09-19T14:10:10;21.00;99.90
27026;DHT22;14565;48.626;8.978;2023-09-19T14:12:39;21.00;99.90
27026;DHT22;14565;48.626;8.978;2023-09-19T14:15:07;20.80;99.90
27026;DHT22;14565;48.626;8.978;2023-09-19T14:17:33;20.60;99.90
27026;DHT22;14565;48.626;8.978;2023-09-19T14:19:59;20.40;99.90
27026;DHT22;14565;48.626;8.978;2023-09-19T14:22:25;20.20;99.90
27026;DHT22;14565;48.626;8.978;2023-09-19T14:24:53;20.20;99.90
27026;DHT22;14565;48.626;8.978;2023-09-19T14:27:20;20.30;99.90
27026;DHT22;14565;48.626;8.978;2023-09-19T14:29:45;20.50;99.90
27026;DHT22;14565;48.626;8.978;2023-09-19T14:32:11;20.60;99.90
27026;DHT22;14565;48.626;8.978;2023-09-19T14:34:38;20.80;99.90
27026;DHT22;14565;48.626;8.978;2023-09-19T14:37:08;20.90;99.90
27026;DHT22;14565;48.626;8.978;2023-09-19T14:39:33;21.00;99.90
27026;DHT22;14565;48.626;8.978;2023-09-19T14:41:59;21.10;99.90
27026;DHT22;14565;48.626;8.978;2023-09-19T14:44:25;21.10;99.90
27026;DHT22;14565;48.626;8.978;2023-09-19T14:46:50;21.00;99.90
27026;DHT22;14565;48.626;8.978;2023-09-19T14:49:16;21.10;99.90
27026;DHT22;14565;48.626;8.978;2023-09-19T14:51:45;21.10;99.90
27026;DHT22;14565;48.626;8.978;2023-09-19T14:54:12;21.00;99.90
27026;DHT22;14565;48.626;8.978;2023-09-19T14:56:38;20.80;99.90
27026;DHT22;14565;48.626;8.978;2023-09-19T14:59:04;21.00;99.90
27026;DHT22;14565;48.626;8.978;2023-09-19T15:01:29;21.00;99.90
27026;DHT22;14565;48.626;8.978;2023-09-19T15:03:55;21.10;99.90
27026;DHT22;14565;48.626;8.978;2023-09-19T15:06:21;21.00;99.90
27026;DHT22;14565;48.626;8.978;2023-09-19T15:08:47;20.90;99.90
27026;DHT22;14565;48.626;8.978;2023-09-19T15:11:17;21.00;99.90
27026;DHT22;14565;48.626;8.978;2023-09-19T15:13:44;21.00;99.90
27026;DHT22;14565;48.626;8.978;2023-09-19T15:16:10;21.00;99.90
27026;DHT22;14565;48.626;8.978;2023-09-19T15:18:41;21.00;99.90
27026;DHT22;14565;48.626;8.978;2023-09-19T15:21:11;21.10;99.90
27026;DHT22;14565;48.626;8.978;2023-09-19T15:23:38;21.00;99.90
27026;DHT22;14565;48.626;8.978;2023-09-19T15:26:05;21.10;99.90
27026;DHT22;14565;48.626;8.978;2023-09-19T15:28:31;21.00;99.90
27026;DHT22;14565;48.626;8.978;2023-09-19T15:31:03;20.90;99.90
27026;DHT22;14565;48.626;8.978;2023-09-19T15:33:32;20.90;99.90
27026;DHT22;14565;48.626;8.978;2023-09-19T15:36:14;20.90;99.90
27026;DHT22;14565;48.626;8.978;2023-09-19T15:39:02;20.90;99.90
27026;DHT22;14565;48.626;8.978;2023-09-19T15:43:58;20.70;99.90
27026;DHT22;14565;48.626;8.978;2023-09-19T15:46:30;20.70;99.90
27026;DHT22;14565;48.626;8.978;2023-09-19T15:48:57;20.70;99.90
27026;DHT22;14565;48.626;8.978;2023-09-19T15:51:23;20.60;99.90
27026;DHT22;14565;48.626;8.978;2023-09-19T15:53:51;20.60;99.90
27026;DHT22;14565;48.626;8.978;2023-09-19T15:56:19;20.70;99.90
27026;DHT22;14565;48.626;8.978;2023-09-19T15:58:52;20.70;99.90
27026;DHT22;14565;48.626;8.978;2023-09-19T16:01:20;20.70;99.90
27026;DHT22;14565;48.626;8.978;2023-09-19T16:03:48;20.70;99.90
27026;DHT22;14565;48.626;8.978;2023-09-19T16:06:36;20.70;99.90
27026;DHT22;14565;48.626;8.978;2023-09-19T16:09:03;20.60;99.90
27026;DHT22;14565;48.626;8.978;2023-09-19T16:11:32;20.50;99.90
27026;DHT22;14565;48.626;8.978;2023-09-19T16:13:58;20.40;99.90
27026;DHT22;14565;48.626;8.978;2023-09-19T16:16:25;20.30;99.90
27026;DHT22;14565;48.626;8.978;2023-09-19T16:18:54;20.20;99.90
27026;DHT22;14565;48.626;8.978;2023-09-19T16:21:23;20.20;99.90
27026;DHT22;14565;48.626;8.978;2023-09-19T16:23:50;20.00;99.90
27026;DHT22;14565;48.626;8.978;2023-09-19T16:26:17;19.90;99.90
27026;DHT22;14565;48.626;8.978;2023-09-19T16:28:47;19.80;99.90
27026;DHT22;14565;48.626;8.978;2023-09-19T16:31:13;19.80;99.90
27026;DHT22;14565;48.626;8.978;2023-09-19T16:33:40;19.80;99.90
27026;DHT22;14565;48.626;8.978;2023-09-19T16:36:10;19.80;99.90
27026;DHT22;14565;48.626;8.978;2023-09-19T16:38:36;19.70;99.90
27026;DHT22;14565;48.626;8.978;2023-09-19T16:41:03;19.70;99.90
27026;DHT22;14565;48.626;8.978;2023-09-19T16:43:30;19.60;99.90
27026;DHT22;14565;48.626;8.978;2023-09-19T16:48:27;19.40;99.90
27026;DHT22;14565;48.626;8.978;2023-09-19T16:50:53;19.30;99.90
27026;DHT22;14565;48.626;8.978;2023-09-19T16:53:20;19.10;99.90
27026;DHT22;14565;48.626;8.978;2023-09-19T16:55:49;19.10;99.90
27026;DHT22;14565;48.626;8.978;2023-09-19T16:58:15;19.00;99.90
27026;DHT22;14565;48.626;8.978;2023-09-19T17:00:41;19.00;99.90